createdAt,value
2023-05-07T00:01:49.497Z,100009.16
2023-05-07T00:04:19.327Z,100004.59
2023-05-07T00:06:46.398Z,100000.66
2023-05-07T00:09:13.654Z,100012.34
2023-05-07T00:11:41.812Z,100014.41
2023-05-07T00:14:10.329Z,100007.28
2023-05-07T00:16:38.194Z,100011.34
2023-05-07T00:19:05.978Z,100020.69
2023-05-07T00:21:32.790Z,100019.09
2023-05-07T00:23:59.831Z,100003.91
2023-05-07T00:26:26.734Z,100010.34
2023-05-07T00:28:54.032Z,99997.75
2023-05-07T00:31:20.878Z,100002.97
2023-05-07T00:33:47.768Z,100004.00
2023-05-07T00:36:14.614Z,100002.19
2023-05-07T00:38:41.632Z,100002.41
2023-05-07T00:41:08.588Z,99996.88
2023-05-07T00:43:35.567Z,99996.88
2023-05-07T00:46:03.354Z,99999.47
2023-05-07T00:48:31.240Z,100003.69
2023-05-07T00:50:58.819Z,100001.06
2023-05-07T00:53:26.138Z,100006.53
2023-05-07T00:55:53.385Z,100006.72
2023-05-07T00:58:23.325Z,100004.03
2023-05-07T01:00:50.162Z,100008.00
2023-05-07T01:03:17.239Z,100008.13
2023-05-07T01:05:46.774Z,100011.41
2023-05-07T01:08:15.994Z,100010.25
2023-05-07T01:10:44.428Z,100008.13
2023-05-07T01:13:15.592Z,100009.91
2023-05-07T01:15:43.711Z,100007.44
2023-05-07T01:18:11.229Z,100008.22
2023-05-07T01:20:38.215Z,100005.03
2023-05-07T01:23:06.610Z,100002.31
2023-05-07T01:25:33.828Z,99998.13
2023-05-07T01:28:02.527Z,99998.34
2023-05-07T01:30:34.101Z,99998.78
2023-05-07T01:33:14.770Z,99999.38
2023-05-07T01:35:46.485Z,99999.84
2023-05-07T01:38:14.492Z,99997.44
2023-05-07T01:40:42.036Z,99996.63
2023-05-07T01:43:11.526Z,100004.38
2023-05-07T01:45:39.025Z,100010.06
2023-05-07T01:48:07.160Z,100009.38
2023-05-07T01:50:35.767Z,100005.63
2023-05-07T01:53:03.626Z,100000.50
2023-05-07T01:55:30.714Z,100008.47
2023-05-07T01:57:57.536Z,100016.19
2023-05-07T02:00:25.033Z,100015.38
2023-05-07T02:02:52.837Z,100006.53
2023-05-07T02:05:29.021Z,100015.84
2023-05-07T02:08:01.771Z,100013.88
2023-05-07T02:10:30.352Z,100013.88
2023-05-07T02:12:57.369Z,100021.16
2023-05-07T02:15:24.946Z,100013.66
2023-05-07T02:18:10.262Z,100018.63
2023-05-07T02:20:38.903Z,100019.66
2023-05-07T02:23:05.768Z,100023.66
2023-05-07T02:25:33.659Z,100023.22
2023-05-07T02:28:00.804Z,100022.41
2023-05-07T02:30:42.693Z,100022.84
2023-05-07T02:33:12.502Z,100021.47
2023-05-07T02:35:39.791Z,100018.88
2023-05-07T02:38:06.819Z,100018.06
2023-05-07T02:40:34.880Z,100014.44
2023-05-07T02:43:01.971Z,100023.22
2023-05-07T02:45:29.501Z,100022.53
2023-05-07T02:47:56.470Z,100019.59
2023-05-07T02:50:23.447Z,100021.72
2023-05-07T02:52:50.452Z,100025.75
2023-05-07T02:55:17.330Z,100025.75
2023-05-07T02:57:44.144Z,100024.94
2023-05-07T03:00:16.689Z,100021.84
2023-05-07T03:02:51.138Z,100024.81
2023-05-07T03:05:18.202Z,100028.44
2023-05-07T03:07:47.224Z,100028.66
2023-05-07T03:10:15.444Z,100036.13
2023-05-07T03:12:43.294Z,100031.34
2023-05-07T03:15:13.752Z,100038.06
2023-05-07T03:17:41.600Z,100032.69
2023-05-07T03:20:11.084Z,100044.63
2023-05-07T03:22:38.788Z,100040.59
2023-05-07T03:25:06.116Z,100043.75
2023-05-07T03:27:37.032Z,100036.31
2023-05-07T03:30:05.598Z,100039.94
2023-05-07T03:32:33.391Z,100048.03
2023-05-07T03:35:00.390Z,100050.84
2023-05-07T03:37:27.409Z,100045.84
2023-05-07T03:39:54.710Z,100051.28
2023-05-07T03:42:21.876Z,100051.28
2023-05-07T03:44:51.327Z,100054.25
2023-05-07T03:47:18.865Z,100059.00
2023-05-07T03:49:46.975Z,100064.00
2023-05-07T03:52:14.811Z,100062.81
2023-05-07T03:54:41.783Z,100056.81
2023-05-07T03:57:12.275Z,100060.75
2023-05-07T03:59:39.762Z,100072.56
2023-05-07T04:02:08.735Z,100069.59
2023-05-07T04:04:35.654Z,100069.97
2023-05-07T04:07:02.684Z,100070.75
2023-05-07T04:09:31.106Z,100077.56
2023-05-07T04:11:58.314Z,100077.13
2023-05-07T04:14:25.453Z,100079.06
2023-05-07T04:16:52.911Z,100082.03
2023-05-07T04:19:19.976Z,100081.94
2023-05-07T04:21:50.294Z,100081.28
2023-05-07T04:24:17.474Z,100084.03
2023-05-07T04:26:45.291Z,100088.47
2023-05-07T04:29:12.589Z,100091.41
2023-05-07T04:31:39.572Z,100091.78
2023-05-07T04:34:06.627Z,100090.16
2023-05-07T04:36:34.296Z,100094.81
2023-05-07T04:39:05.458Z,100090.38
2023-05-07T04:41:34.016Z,100090.38
2023-05-07T04:44:01.643Z,100101.75
2023-05-07T04:46:31.599Z,100105.22
2023-05-07T04:48:58.818Z,100114.31
2023-05-07T04:51:26.489Z,100111.13
2023-05-07T04:53:54.047Z,100118.28
2023-05-07T04:56:21.722Z,100124.81
2023-05-07T04:58:50.921Z,100128.09
2023-05-07T05:01:20.989Z,100138.38
2023-05-07T05:03:50.701Z,100132.97
2023-05-07T05:06:18.144Z,100138.34
2023-05-07T05:08:45.003Z,100131.66
2023-05-07T05:11:12.181Z,100138.69
2023-05-07T05:13:40.886Z,100143.28
2023-05-07T05:16:17.534Z,100137.19
2023-05-07T05:18:50.301Z,100149.47
2023-05-07T05:21:19.895Z,100146.53
2023-05-07T05:23:49.423Z,100152.28
2023-05-07T05:26:22.899Z,100155.09
2023-05-07T05:28:56.209Z,100151.94
2023-05-07T05:31:25.612Z,100150.19
2023-05-07T05:33:54.498Z,100154.25
2023-05-07T05:36:26.987Z,100163.63
2023-05-07T05:38:57.668Z,100154.63
2023-05-07T05:41:26.089Z,100162.94
2023-05-07T05:44:02.961Z,100163.44
2023-05-07T05:46:31.698Z,100169.28
2023-05-07T05:48:59.851Z,100174.69
2023-05-07T05:51:37.350Z,100180.25
2023-05-07T05:54:04.222Z,100182.34
2023-05-07T05:56:32.089Z,100175.22
2023-05-07T05:58:59.232Z,100184.41
2023-05-07T06:01:26.377Z,100186.88
2023-05-07T06:03:57.223Z,100181.75
2023-05-07T06:06:24.161Z,100177.63
2023-05-07T06:08:51.326Z,100178.00
2023-05-07T06:11:22.805Z,100180.28
2023-05-07T06:13:50.936Z,100185.91
2023-05-07T06:16:17.873Z,100186.38
2023-05-07T06:18:47.856Z,100188.50
2023-05-07T06:21:16.308Z,100188.13
2023-05-07T06:23:43.334Z,100201.19
2023-05-07T06:26:11.619Z,100203.72
2023-05-07T06:28:42.334Z,100198.16
2023-05-07T06:31:35.606Z,100202.53
2023-05-07T06:34:07.332Z,100209.06
2023-05-07T06:36:37.731Z,100201.84
2023-05-07T06:39:13.523Z,100212.25
2023-05-07T06:41:40.361Z,100208.84
2023-05-07T06:44:16.227Z,100203.56
2023-05-07T06:46:54.576Z,100205.69
2023-05-07T06:49:21.692Z,100202.56
2023-05-07T06:51:49.762Z,100220.34
2023-05-07T06:54:17.330Z,100216.22
2023-05-07T06:56:47.347Z,100206.69
2023-05-07T06:59:14.896Z,100209.25
2023-05-07T07:01:42.242Z,100211.59
2023-05-07T07:04:10.861Z,100210.28
2023-05-07T07:06:38.914Z,100216.28
2023-05-07T07:09:10.233Z,100215.03
2023-05-07T07:11:37.337Z,100216.00
2023-05-07T07:14:06.478Z,100219.81
2023-05-07T07:16:37.714Z,100223.72
2023-05-07T07:19:04.674Z,100233.91
2023-05-07T07:21:31.807Z,100228.78
2023-05-07T07:23:59.235Z,100229.59
2023-05-07T07:26:26.587Z,100234.81
2023-05-07T07:28:53.483Z,100241.69
2023-05-07T07:31:22.481Z,100235.09
2023-05-07T07:33:53.063Z,100228.78
2023-05-07T07:36:21.920Z,100233.34
2023-05-07T07:38:50.353Z,100237.72
2023-05-07T07:41:18.218Z,100235.38
2023-05-07T07:43:45.094Z,100235.22
2023-05-07T07:46:12.079Z,100243.66
2023-05-07T07:48:39.076Z,100244.56
2023-05-07T07:51:06.904Z,100249.72
2023-05-07T07:53:34.487Z,100254.97
2023-05-07T07:56:03.550Z,100249.75
2023-05-07T07:58:36.500Z,100247.19
2023-05-07T08:01:04.230Z,100250.94
2023-05-07T08:03:33.672Z,100254.09
2023-05-07T08:06:02.303Z,100251.91
2023-05-07T08:08:33.047Z,100247.25
2023-05-07T08:11:00.251Z,100257.47
2023-05-07T08:13:31.755Z,100260.31
2023-05-07T08:15:59.483Z,100261.13
2023-05-07T08:18:27.445Z,100265.50
2023-05-07T08:20:54.879Z,100276.78
2023-05-07T08:23:25.765Z,100272.50
2023-05-07T08:25:54.584Z,100271.94
2023-05-07T08:28:22.486Z,100263.97
2023-05-07T08:30:51.375Z,100264.81
2023-05-07T08:33:21.011Z,100258.25
2023-05-07T08:35:47.867Z,100265.81
2023-05-07T08:38:16.120Z,100268.84
2023-05-07T08:40:43.358Z,100258.53
2023-05-07T08:43:15.966Z,100254.56
2023-05-07T08:45:49.768Z,100252.31
2023-05-07T08:48:20.389Z,100255.19
2023-05-07T08:50:56.537Z,100253.69
2023-05-07T08:53:23.413Z,100250.06
2023-05-07T08:55:51.472Z,100255.13
2023-05-07T08:58:18.898Z,100257.16
2023-05-07T09:00:48.281Z,100250.91
2023-05-07T09:03:15.962Z,100250.13
2023-05-07T09:05:46.789Z,100246.75
2023-05-07T09:08:17.562Z,100254.50
2023-05-07T09:10:50.131Z,100246.56
2023-05-07T09:13:20.359Z,100256.16
2023-05-07T09:15:47.350Z,100248.75
2023-05-07T09:18:16.755Z,100248.91
2023-05-07T09:20:45.690Z,100241.25
2023-05-07T09:23:13.542Z,100248.44
2023-05-07T09:25:41.834Z,100241.09
2023-05-07T09:28:18.154Z,100244.25
2023-05-07T09:30:45.629Z,100239.59
2023-05-07T09:33:16.255Z,100243.44
2023-05-07T09:35:47.648Z,100244.03
2023-05-07T09:38:20.845Z,100239.28
2023-05-07T09:41:02.277Z,100237.72
2023-05-07T09:43:37.011Z,100228.75
2023-05-07T09:46:08.987Z,100225.03
2023-05-07T09:48:40.751Z,100224.13
2023-05-07T09:51:29.634Z,100228.16
2023-05-07T09:54:01.458Z,100224.25
2023-05-07T09:56:56.024Z,100218.75
2023-05-07T09:59:30.180Z,100226.59
2023-05-07T10:02:02.156Z,100234.22
2023-05-07T10:04:32.705Z,100229.88
2023-05-07T10:07:00.904Z,100232.53
2023-05-07T10:09:29.015Z,100233.69
2023-05-07T10:11:57.251Z,100227.97
2023-05-07T10:14:24.519Z,100233.09
2023-05-07T10:16:54.748Z,100224.38
2023-05-07T10:19:26.128Z,100225.94
2023-05-07T10:22:02.876Z,100219.00
2023-05-07T10:24:39.047Z,100216.44
2023-05-07T10:27:15.614Z,100208.16
2023-05-07T10:30:22.081Z,100204.00
2023-05-07T10:32:52.178Z,100214.88
2023-05-07T10:35:37.523Z,100211.34
2023-05-07T10:38:08.377Z,100212.47
2023-05-07T10:40:37.952Z,100214.34
2023-05-07T10:43:10.242Z,100214.22
2023-05-07T10:45:43.068Z,100210.75
2023-05-07T10:48:29.775Z,100212.38
2023-05-07T10:51:28.205Z,100217.56
2023-05-07T10:54:15.240Z,100217.13
2023-05-07T10:56:52.007Z,100213.16
2023-05-07T10:59:26.864Z,100201.88
2023-05-07T11:02:03.685Z,100211.91
2023-05-07T11:04:39.813Z,100207.41
2023-05-07T11:07:30.089Z,100207.69
2023-05-07T11:10:06.927Z,100209.25
2023-05-07T11:13:00.053Z,100217.19
2023-05-07T11:15:44.190Z,100207.41
2023-05-07T11:18:18.946Z,100207.41
2023-05-07T11:20:59.728Z,100215.81
2023-05-07T11:23:39.378Z,100207.88
2023-05-07T11:26:13.102Z,100209.19
2023-05-07T11:28:46.419Z,100203.13
2023-05-07T11:31:13.505Z,100209.91
2023-05-07T11:33:41.929Z,100207.84
2023-05-07T11:36:13.480Z,100195.22
2023-05-07T11:38:45.656Z,100196.81
2023-05-07T11:41:12.513Z,100204.19
2023-05-07T11:43:41.071Z,100201.56
2023-05-07T11:46:10.700Z,100195.75
2023-05-07T11:48:38.119Z,100199.47
2023-05-07T11:51:13.234Z,100201.03
2023-05-07T11:53:42.429Z,100195.75
2023-05-07T11:56:14.375Z,100197.31
2023-05-07T11:58:42.596Z,100204.19
2023-05-07T12:01:11.591Z,100208.94
2023-05-07T12:03:43.764Z,100202.88
2023-05-07T12:06:13.254Z,100206.34
2023-05-07T12:08:41.829Z,100210.56
2023-05-07T12:11:12.471Z,100209.50
2023-05-07T12:13:39.505Z,100215.06
2023-05-07T12:16:08.050Z,100208.75
2023-05-07T12:18:36.414Z,100217.97
2023-05-07T12:21:05.123Z,100208.97
2023-05-07T12:23:32.311Z,100210.84
2023-05-07T12:26:00.202Z,100209.28
2023-05-07T12:28:29.828Z,100214.28
2023-05-07T12:30:57.642Z,100218.50
2023-05-07T12:33:29.525Z,100212.16
2023-05-07T12:35:57.455Z,100217.44
2023-05-07T12:38:26.802Z,100223.50
2023-05-07T12:40:55.835Z,100224.81
2023-05-07T12:43:27.375Z,100232.47
2023-05-07T12:46:01.238Z,100224.28
2023-05-07T12:48:28.280Z,100211.63
2023-05-07T12:50:58.889Z,100210.00
2023-05-07T12:53:29.991Z,100212.13
2023-05-07T12:55:58.825Z,100213.72
2023-05-07T12:58:28.802Z,100200.06
2023-05-07T13:01:00.754Z,100216.91
2023-05-07T13:03:33.415Z,100212.41
2023-05-07T13:06:06.136Z,100199.72
2023-05-07T13:08:35.205Z,100191.53
2023-05-07T13:11:04.846Z,100191.03
2023-05-07T13:13:33.572Z,100199.47
2023-05-07T13:16:01.631Z,100200.28
2023-05-07T13:18:30.352Z,100192.06
2023-05-07T13:20:57.528Z,100195.25
2023-05-07T13:23:24.589Z,100194.72
2023-05-07T13:25:51.868Z,100191.75
2023-05-07T13:28:18.719Z,100195.75
2023-05-07T13:30:45.734Z,100193.91
2023-05-07T13:33:12.732Z,100197.84
2023-05-07T13:35:39.796Z,100189.94
2023-05-07T13:38:06.845Z,100182.56
2023-05-07T13:40:33.865Z,100189.44
2023-05-07T13:43:03.144Z,100191.28
2023-05-07T13:45:30.841Z,100191.81
2023-05-07T13:47:58.216Z,100188.41
2023-05-07T13:50:25.581Z,100188.97
2023-05-07T13:52:52.488Z,100190.50
2023-05-07T13:55:20.541Z,100191.28
2023-05-07T13:57:48.158Z,100198.94
2023-05-07T14:00:17.383Z,100195.22
2023-05-07T14:02:45.329Z,100205.75
2023-05-07T14:05:12.311Z,100202.84
2023-05-07T14:07:39.141Z,100204.97
2023-05-07T14:10:06.942Z,100197.09
2023-05-07T14:12:34.316Z,100199.44
2023-05-07T14:15:01.203Z,100199.38
2023-05-07T14:17:28.253Z,100197.78
2023-05-07T14:19:55.862Z,100210.44
2023-05-07T14:22:23.682Z,100210.69
2023-05-07T14:25:05.384Z,100206.09
2023-05-07T14:27:34.823Z,100205.31
2023-05-07T14:30:01.978Z,100217.22
2023-05-07T14:32:34.927Z,100215.19
2023-05-07T14:35:02.058Z,100223.56
2023-05-07T14:37:33.145Z,100227.53
2023-05-07T14:40:00.040Z,100229.00
2023-05-07T14:42:26.984Z,100236.59
2023-05-07T14:44:54.330Z,100223.38
2023-05-07T14:47:21.391Z,100229.28
2023-05-07T14:49:48.191Z,100238.69
2023-05-07T14:52:15.080Z,100230.53
2023-05-07T14:54:42.063Z,100230.06
2023-05-07T14:57:11.466Z,100232.91
2023-05-07T14:59:42.658Z,100228.63
2023-05-07T15:02:12.364Z,100236.25
2023-05-07T15:04:49.750Z,100233.91
2023-05-07T15:07:16.955Z,100239.44
2023-05-07T15:09:45.742Z,100242.94
2023-05-07T15:12:13.002Z,100247.06
2023-05-07T15:14:40.682Z,100244.88
2023-05-07T15:17:08.544Z,100250.03
2023-05-07T15:19:35.603Z,100254.19
2023-05-07T15:22:05.687Z,100250.50
2023-05-07T15:24:32.654Z,100245.75
2023-05-07T15:26:59.959Z,100230.72
2023-05-07T15:29:26.896Z,100238.25
2023-05-07T15:31:53.728Z,100237.47
2023-05-07T15:34:21.875Z,100246.72
2023-05-07T15:36:48.976Z,100229.03
2023-05-07T15:39:17.084Z,100241.84
2023-05-07T15:41:46.852Z,100242.91
2023-05-07T15:44:13.593Z,100248.19
2023-05-07T15:46:40.462Z,100253.09
2023-05-07T15:49:08.499Z,100246.34
2023-05-07T15:51:36.916Z,100255.31
2023-05-07T15:54:04.157Z,100260.66
2023-05-07T15:56:33.903Z,100271.72
2023-05-07T15:59:01.012Z,100274.66
2023-05-07T16:01:28.368Z,100274.97
2023-05-07T16:03:55.512Z,100273.84
2023-05-07T16:06:22.496Z,100271.19
2023-05-07T16:08:49.292Z,100266.44
2023-05-07T16:11:16.155Z,100265.31
2023-05-07T16:13:43.079Z,100270.88
2023-05-07T16:16:11.213Z,100263.19
2023-05-07T16:18:38.113Z,100254.25
2023-05-07T16:21:05.540Z,100257.72
2023-05-07T16:23:32.377Z,100256.69
2023-05-07T16:25:59.160Z,100258.78
2023-05-07T16:28:26.745Z,100263.56
2023-05-07T16:30:53.637Z,100260.53
2023-05-07T16:33:22.807Z,100259.16
2023-05-07T16:35:53.997Z,100260.00
2023-05-07T16:38:24.558Z,100260.81
2023-05-07T16:40:51.730Z,100269.47
2023-05-07T16:43:18.741Z,100269.97
2023-05-07T16:45:46.620Z,100276.63
2023-05-07T16:48:13.497Z,100274.03
2023-05-07T16:50:40.325Z,100268.59
2023-05-07T16:53:07.543Z,100268.72
2023-05-07T16:55:38.951Z,100267.16
2023-05-07T16:58:07.849Z,100260.56
2023-05-07T17:00:49.046Z,100267.16
2023-05-07T17:03:18.544Z,100277.34
2023-05-07T17:05:45.671Z,100279.88
2023-05-07T17:08:14.124Z,100282.25
2023-05-07T17:10:41.803Z,100288.50
2023-05-07T17:13:08.675Z,100281.56
2023-05-07T17:15:35.584Z,100281.34
2023-05-07T17:18:02.488Z,100288.13
2023-05-07T17:20:31.768Z,100294.41
2023-05-07T17:22:58.646Z,100296.63
2023-05-07T17:25:25.934Z,100296.28
2023-05-07T17:27:53.074Z,100294.41
2023-05-07T17:30:20.608Z,100298.25
2023-05-07T17:32:47.480Z,100299.91
2023-05-07T17:35:15.483Z,100304.06
2023-05-07T17:37:47.116Z,100301.06
2023-05-07T17:40:15.379Z,100304.06
2023-05-07T17:42:42.190Z,100303.97
2023-05-07T17:45:09.413Z,100313.03
2023-05-07T17:47:36.264Z,100314.47
2023-05-07T17:50:05.995Z,100317.59
2023-05-07T17:52:32.829Z,100329.03
2023-05-07T17:54:59.624Z,100317.50
2023-05-07T17:57:26.847Z,100322.41
2023-05-07T17:59:53.690Z,100336.69
2023-05-07T18:02:20.566Z,100346.56
2023-05-07T18:04:47.571Z,100344.78
2023-05-07T18:07:14.660Z,100347.88
2023-05-07T18:09:41.638Z,100351.50
2023-05-07T18:12:08.582Z,100352.78
2023-05-07T18:14:38.334Z,100347.69
2023-05-07T18:17:05.136Z,100356.13
2023-05-07T18:19:32.028Z,100361.53
2023-05-07T18:21:58.843Z,100371.41
2023-05-07T18:24:27.141Z,100365.84
2023-05-07T18:26:54.748Z,100372.47
2023-05-07T18:29:21.564Z,100380.88
2023-05-07T18:31:48.410Z,100381.06
2023-05-07T18:34:15.217Z,100394.31
2023-05-07T18:36:42.207Z,100395.69
2023-05-07T18:39:09.046Z,100387.91
2023-05-07T18:41:36.826Z,100390.09
2023-05-07T18:44:03.720Z,100384.06
2023-05-07T18:46:30.631Z,100386.69
2023-05-07T18:48:57.583Z,100382.28
2023-05-07T18:51:24.407Z,100386.25
2023-05-07T18:53:51.221Z,100398.50
2023-05-07T18:56:18.087Z,100398.41
2023-05-07T18:58:45.015Z,100398.81
2023-05-07T19:01:11.772Z,100401.97
2023-05-07T19:03:38.578Z,100403.00
2023-05-07T19:06:06.164Z,100405.38
2023-05-07T19:08:33.289Z,100409.75
2023-05-07T19:11:00.482Z,100415.38
2023-05-07T19:13:27.714Z,100418.81
2023-05-07T19:15:55.152Z,100416.38
2023-05-07T19:18:22.374Z,100426.94
2023-05-07T19:20:52.120Z,100426.56
2023-05-07T19:23:21.498Z,100433.91
2023-05-07T19:25:49.182Z,100430.50
2023-05-07T19:28:16.566Z,100441.44
2023-05-07T19:30:43.410Z,100446.78
2023-05-07T19:33:10.415Z,100453.97
2023-05-07T19:35:40.128Z,100453.97
2023-05-07T19:38:08.126Z,100453.53
2023-05-07T19:40:36.417Z,100459.53
2023-05-07T19:43:03.618Z,100455.50
2023-05-07T19:45:30.792Z,100457.94
2023-05-07T19:47:57.716Z,100460.72
2023-05-07T19:50:24.633Z,100460.31
2023-05-07T19:52:54.947Z,100452.03
2023-05-07T19:55:23.069Z,100455.13
2023-05-07T19:57:50.071Z,100449.38
2023-05-07T20:00:17.808Z,100458.59
2023-05-07T20:02:49.829Z,100452.91
2023-05-07T20:05:16.713Z,100450.22
2023-05-07T20:07:48.468Z,100451.41
2023-05-07T20:10:15.638Z,100449.00
2023-05-07T20:12:42.884Z,100453.06
2023-05-07T20:15:15.018Z,100452.91
2023-05-07T20:17:49.253Z,100451.97
2023-05-07T20:20:24.038Z,100460.34
2023-05-07T20:22:51.994Z,100463.94
2023-05-07T20:25:31.298Z,100464.94
2023-05-07T20:27:58.351Z,100457.28
2023-05-07T20:30:27.848Z,100462.47
2023-05-07T20:32:54.795Z,100465.81
2023-05-07T20:35:21.673Z,100469.16
2023-05-07T20:37:49.445Z,100475.94
2023-05-07T20:40:17.836Z,100477.44
2023-05-07T20:42:49.638Z,100475.44
2023-05-07T20:45:16.450Z,100485.06
2023-05-07T20:47:46.094Z,100491.50
2023-05-07T20:50:18.883Z,100489.63
2023-05-07T20:52:46.920Z,100486.06
2023-05-07T20:55:13.793Z,100482.56
2023-05-07T20:57:40.916Z,100475.06
2023-05-07T21:00:09.413Z,100474.16
2023-05-07T21:02:38.776Z,100488.75
2023-05-07T21:05:09.436Z,100484.97
2023-05-07T21:07:36.524Z,100486.19
2023-05-07T21:10:07.174Z,100486.19
2023-05-07T21:12:34.668Z,100482.47
2023-05-07T21:15:02.842Z,100484.25
2023-05-07T21:17:35.525Z,100486.66
2023-05-07T21:20:03.988Z,100495.03
2023-05-07T21:22:35.950Z,100487.66
2023-05-07T21:25:05.731Z,100493.81
2023-05-07T21:27:32.808Z,100491.03
2023-05-07T21:30:04.879Z,100507.94
2023-05-07T21:32:37.012Z,100501.34
2023-05-07T21:35:12.193Z,100505.50
2023-05-07T21:37:39.532Z,100504.69
2023-05-07T21:40:07.723Z,100509.69
2023-05-07T21:42:35.236Z,100506.56
2023-05-07T21:45:06.477Z,100504.72
2023-05-07T21:47:34.087Z,100509.47
2023-05-07T21:50:01.975Z,100523.28
2023-05-07T21:52:32.707Z,100522.38
2023-05-07T21:55:01.397Z,100533.94
2023-05-07T21:57:30.789Z,100536.63
2023-05-07T22:00:00.974Z,100541.28
2023-05-07T22:02:49.444Z,100544.22
2023-05-07T22:05:16.441Z,100545.66
2023-05-07T22:07:44.343Z,100550.09
2023-05-07T22:10:11.456Z,100546.19
2023-05-07T22:12:38.816Z,100546.38
2023-05-07T22:15:06.366Z,100542.16
2023-05-07T22:17:33.637Z,100540.72
2023-05-07T22:20:00.679Z,100548.97
2023-05-07T22:22:27.446Z,100552.59
2023-05-07T22:24:54.311Z,100554.19
2023-05-07T22:27:21.107Z,100549.31
2023-05-07T22:29:47.980Z,100551.97
2023-05-07T22:32:15.055Z,100551.47
2023-05-07T22:34:41.918Z,100548.50
2023-05-07T22:37:08.769Z,100559.31
2023-05-07T22:39:35.764Z,100550.38
2023-05-07T22:42:02.717Z,100555.22
2023-05-07T22:44:29.833Z,100550.22
2023-05-07T22:46:56.725Z,100547.44
2023-05-07T22:49:23.569Z,100541.44
2023-05-07T22:51:50.489Z,100550.03
2023-05-07T22:54:17.481Z,100549.13
2023-05-07T22:56:44.235Z,100539.19
2023-05-07T22:59:11.151Z,100530.28
2023-05-07T23:01:38.168Z,100530.44
2023-05-07T23:04:05.211Z,100531.69
2023-05-07T23:06:32.115Z,100532.66
2023-05-07T23:08:58.999Z,100539.16
2023-05-07T23:11:26.500Z,100537.03
2023-05-07T23:13:53.342Z,100545.50
2023-05-07T23:16:20.317Z,100545.38
2023-05-07T23:18:47.892Z,100544.56
2023-05-07T23:21:14.797Z,100550.69
2023-05-07T23:23:41.901Z,100542.91
2023-05-07T23:26:08.807Z,100545.19
2023-05-07T23:28:35.678Z,100539.19
2023-05-07T23:31:02.586Z,100532.56
2023-05-07T23:33:29.405Z,100533.91
2023-05-07T23:36:00.786Z,100529.25
2023-05-07T23:38:27.713Z,100532.03
2023-05-07T23:40:55.005Z,100523.78
2023-05-07T23:43:22.215Z,100531.38
2023-05-07T23:45:49.572Z,100531.31
2023-05-07T23:48:16.621Z,100531.50
2023-05-07T23:50:43.533Z,100540.22
2023-05-07T23:53:10.510Z,100542.78
2023-05-07T23:55:37.523Z,100536.00
2023-05-07T23:58:04.472Z,100535.53
